createdAt,value
2022-11-15T00:00:48.930Z,4.14
2022-11-15T00:03:37.717Z,4.18
2022-11-15T00:06:27.799Z,4.21
2022-11-15T00:09:14.100Z,4.21
2022-11-15T00:12:00.441Z,4.17
2022-11-15T00:14:48.116Z,4.18
2022-11-15T00:17:34.428Z,4.20
2022-11-15T00:20:20.909Z,4.21
2022-11-15T00:23:10.401Z,4.20
2022-11-15T00:26:00.527Z,4.19
2022-11-15T00:28:47.496Z,4.20
2022-11-15T00:31:33.683Z,4.19
2022-11-15T00:34:20.653Z,4.19
2022-11-15T00:37:08.559Z,4.17
2022-11-15T00:39:56.722Z,4.15
2022-11-15T00:42:43.124Z,4.14
2022-11-15T00:45:29.545Z,4.15
2022-11-15T00:48:15.802Z,4.15
2022-11-15T00:51:02.389Z,4.17
2022-11-15T00:53:48.558Z,4.15
2022-11-15T00:56:36.226Z,4.09
2022-11-15T00:59:24.048Z,4.17
2022-11-15T01:02:10.512Z,4.11
2022-11-15T01:04:56.864Z,4.02
2022-11-15T01:07:44.628Z,4.00
2022-11-15T01:10:33.403Z,4.00
2022-11-15T01:13:23.195Z,3.98
2022-11-15T01:16:11.392Z,3.98
2022-11-15T01:18:58.098Z,3.97
2022-11-15T01:21:44.531Z,3.90
2022-11-15T01:24:30.927Z,3.79
2022-11-15T01:27:17.205Z,3.73
2022-11-15T01:30:05.869Z,3.72
2022-11-15T01:32:52.010Z,3.72
2022-11-15T01:35:41.135Z,3.74
2022-11-15T01:38:27.811Z,3.76
2022-11-15T01:41:19.386Z,3.74
2022-11-15T01:44:33.828Z,3.72
2022-11-15T01:47:27.028Z,3.70
2022-11-15T01:50:18.415Z,3.66
2022-11-15T01:53:05.457Z,3.60
2022-11-15T01:55:54.059Z,3.55
2022-11-15T01:58:43.120Z,3.53
2022-11-15T02:01:33.074Z,3.52
2022-11-15T02:04:25.531Z,3.45
2022-11-15T02:07:14.325Z,3.40
2022-11-15T02:10:07.246Z,3.33
2022-11-15T02:12:57.061Z,3.26
2022-11-15T02:15:55.348Z,3.22
2022-11-15T02:18:51.223Z,3.23
2022-11-15T02:21:46.963Z,3.23
2022-11-15T02:24:52.463Z,3.22
2022-11-15T02:28:04.412Z,3.20
2022-11-15T02:30:59.354Z,3.18
2022-11-15T02:33:56.283Z,3.10
2022-11-15T02:36:49.669Z,3.02
2022-11-15T02:39:42.586Z,3.04
2022-11-15T02:42:51.800Z,3.00
2022-11-15T02:45:42.230Z,2.93
2022-11-15T02:48:36.878Z,2.88
2022-11-15T02:51:23.915Z,2.84
2022-11-15T02:54:17.112Z,2.82
2022-11-15T02:57:06.503Z,2.77
2022-11-15T03:00:06.613Z,2.72
2022-11-15T03:03:34.777Z,2.73
2022-11-15T03:06:31.933Z,2.77
2022-11-15T03:09:29.521Z,2.77
2022-11-15T03:12:27.318Z,2.81
2022-11-15T03:15:20.773Z,2.77
2022-11-15T03:18:14.570Z,2.74
2022-11-15T03:21:05.402Z,2.73
2022-11-15T03:23:55.408Z,2.72
2022-11-15T03:26:45.941Z,2.68
2022-11-15T03:29:36.382Z,2.70
2022-11-15T03:32:27.635Z,2.68
2022-11-15T03:35:17.400Z,2.68
2022-11-15T03:38:11.366Z,2.65
2022-11-15T03:41:01.707Z,2.61
2022-11-15T03:43:55.084Z,2.63
2022-11-15T03:46:48.846Z,2.64
2022-11-15T03:49:37.418Z,2.51
2022-11-15T03:52:24.214Z,2.41
2022-11-15T03:55:15.959Z,2.35
2022-11-15T03:58:04.069Z,2.34
2022-11-15T04:00:50.682Z,2.33
2022-11-15T04:03:37.871Z,2.39
2022-11-15T04:06:24.209Z,2.36
2022-11-15T04:09:10.408Z,2.35
2022-11-15T04:11:56.518Z,2.39
2022-11-15T04:15:04.347Z,2.38
2022-11-15T04:17:52.895Z,2.34
2022-11-15T04:21:06.121Z,2.35
2022-11-15T04:24:09.989Z,2.40
2022-11-15T04:27:16.717Z,2.36
2022-11-15T04:30:09.320Z,2.39
2022-11-15T04:32:57.771Z,2.41
2022-11-15T04:35:46.966Z,2.38
2022-11-15T04:38:34.314Z,2.38
2022-11-15T04:41:27.664Z,2.36
2022-11-15T04:44:15.971Z,2.25
2022-11-15T04:47:03.632Z,2.20
2022-11-15T04:49:50.394Z,2.21
2022-11-15T04:52:36.931Z,2.25
2022-11-15T04:55:23.490Z,2.27
2022-11-15T04:58:11.733Z,2.27
2022-11-15T05:00:57.981Z,2.25
2022-11-15T05:04:04.342Z,2.25
2022-11-15T05:06:52.982Z,2.19
2022-11-15T05:09:39.241Z,2.17
2022-11-15T05:12:25.589Z,2.18
2022-11-15T05:15:12.062Z,2.17
2022-11-15T05:18:01.766Z,2.16
2022-11-15T05:20:49.646Z,2.10
2022-11-15T05:23:35.975Z,2.12
2022-11-15T05:26:22.068Z,2.06
2022-11-15T05:29:11.473Z,2.02
2022-11-15T05:31:57.642Z,2.04
2022-11-15T05:34:43.752Z,2.03
2022-11-15T05:37:31.640Z,2.04
2022-11-15T05:40:18.241Z,2.07
2022-11-15T05:43:06.820Z,2.05
2022-11-15T05:45:53.314Z,2.07
2022-11-15T05:48:42.676Z,2.01
2022-11-15T05:51:30.914Z,1.97
2022-11-15T05:54:19.653Z,1.97
2022-11-15T05:57:06.646Z,1.89
2022-11-15T05:59:53.796Z,1.89
2022-11-15T06:02:39.839Z,1.89
2022-11-15T06:05:26.297Z,1.89
2022-11-15T06:08:12.862Z,1.89
2022-11-15T06:11:07.041Z,1.79
2022-11-15T06:13:56.094Z,1.76
2022-11-15T06:16:42.701Z,1.81
2022-11-15T06:19:33.651Z,1.79
2022-11-15T06:22:20.990Z,1.76
2022-11-15T06:25:08.155Z,1.76
2022-11-15T06:27:56.720Z,1.74
2022-11-15T06:30:42.866Z,1.77
2022-11-15T06:33:29.473Z,1.80
2022-11-15T06:36:19.038Z,1.77
2022-11-15T06:39:05.370Z,1.81
2022-11-15T06:41:52.043Z,1.81
2022-11-15T06:44:39.707Z,1.82
2022-11-15T06:47:26.176Z,1.85
2022-11-15T06:50:13.551Z,1.90
2022-11-15T06:53:03.567Z,1.95
2022-11-15T06:55:55.199Z,1.95
2022-11-15T06:58:41.775Z,1.93
2022-11-15T07:01:29.377Z,1.95
2022-11-15T07:04:15.825Z,1.98
2022-11-15T07:07:02.387Z,2.00
2022-11-15T07:09:51.718Z,2.03
2022-11-15T07:12:40.197Z,2.08
2022-11-15T07:15:28.055Z,2.11
2022-11-15T07:18:16.181Z,2.15
2022-11-15T07:21:06.861Z,2.16
2022-11-15T07:23:54.340Z,2.18
2022-11-15T07:26:41.677Z,2.22
2022-11-15T07:29:28.016Z,2.28
2022-11-15T07:32:14.267Z,2.37
2022-11-15T07:35:02.189Z,2.30
2022-11-15T07:37:55.857Z,2.35
2022-11-15T07:40:42.672Z,2.36
2022-11-15T07:43:30.723Z,2.40
2022-11-15T07:46:17.431Z,2.48
2022-11-15T07:49:06.467Z,2.55
2022-11-15T07:51:55.183Z,2.63
2022-11-15T07:54:42.094Z,2.65
2022-11-15T07:57:29.068Z,2.72
2022-11-15T08:00:17.023Z,2.82
2022-11-15T08:03:07.025Z,2.87
2022-11-15T08:05:53.818Z,2.92
2022-11-15T08:08:41.594Z,2.99
2022-11-15T08:11:27.778Z,3.11
2022-11-15T08:14:14.187Z,3.21
2022-11-15T08:17:00.546Z,3.32
2022-11-15T08:19:46.986Z,3.46
2022-11-15T08:22:33.522Z,3.60
2022-11-15T08:25:21.351Z,3.74
2022-11-15T08:28:10.100Z,3.88
2022-11-15T08:30:58.531Z,4.00
2022-11-15T08:33:47.174Z,4.13
2022-11-15T08:36:44.627Z,4.24
2022-11-15T08:39:36.919Z,4.41
2022-11-15T08:42:33.365Z,4.53
2022-11-15T08:45:19.594Z,4.66
2022-11-15T08:48:06.886Z,4.79
2022-11-15T08:50:56.174Z,4.92
2022-11-15T08:53:44.009Z,5.05
2022-11-15T08:56:30.625Z,5.18
2022-11-15T08:59:19.643Z,5.32
2022-11-15T09:02:06.674Z,5.43
2022-11-15T09:04:53.901Z,5.56
2022-11-15T09:07:40.159Z,5.68
2022-11-15T09:10:26.442Z,5.79
2022-11-15T09:13:12.589Z,5.89
2022-11-15T09:16:01.502Z,5.98
2022-11-15T09:18:48.347Z,6.06
2022-11-15T09:21:34.904Z,6.12
2022-11-15T09:24:22.092Z,6.19
2022-11-15T09:27:08.796Z,6.27
2022-11-15T09:29:55.029Z,6.34
2022-11-15T09:32:42.701Z,6.41
2022-11-15T09:35:28.979Z,6.49
2022-11-15T09:38:16.480Z,6.59
2022-11-15T09:41:36.939Z,6.65
2022-11-15T09:44:49.079Z,6.71
2022-11-15T09:47:57.859Z,6.78
2022-11-15T09:50:52.548Z,6.83
2022-11-15T09:53:57.542Z,6.88
2022-11-15T09:56:21.736Z,6.93
2022-11-15T09:59:03.496Z,6.98
2022-11-15T10:01:50.808Z,7.04
2022-11-15T10:04:20.453Z,7.08
2022-11-15T10:07:04.140Z,7.13
2022-11-15T10:09:39.785Z,7.15
2022-11-15T10:12:10.104Z,7.18
2022-11-15T10:14:40.271Z,7.25
2022-11-15T10:17:23.305Z,7.30
2022-11-15T10:20:09.743Z,7.37
2022-11-15T10:22:42.161Z,7.42
2022-11-15T10:25:19.681Z,7.48
2022-11-15T10:27:54.549Z,7.56
2022-11-15T10:30:22.977Z,7.64
2022-11-15T10:32:51.457Z,7.70
2022-11-15T10:35:24.477Z,7.83
2022-11-15T10:37:52.582Z,7.95
2022-11-15T10:40:26.968Z,8.06
2022-11-15T10:43:14.809Z,8.15
2022-11-15T10:45:43.436Z,8.26
2022-11-15T10:48:23.771Z,8.36
2022-11-15T10:50:54.659Z,8.55
2022-11-15T10:53:31.538Z,8.67
2022-11-15T10:56:07.306Z,8.79
2022-11-15T10:58:41.093Z,9.04
2022-11-15T11:01:18.225Z,9.12
2022-11-15T11:03:59.123Z,9.17
2022-11-15T11:06:48.545Z,9.26
2022-11-15T11:09:32.943Z,9.30
2022-11-15T11:12:05.292Z,9.38
2022-11-15T11:14:43.142Z,9.49
2022-11-15T11:17:19.777Z,9.52
2022-11-15T11:19:59.709Z,9.57
2022-11-15T11:22:41.459Z,9.67
2022-11-15T11:25:24.900Z,9.78
2022-11-15T11:28:07.618Z,9.83
2022-11-15T11:30:52.078Z,9.86
2022-11-15T11:33:28.994Z,9.90
2022-11-15T11:36:11.942Z,9.95
2022-11-15T11:38:58.862Z,10.03
2022-11-15T11:41:55.316Z,10.10
2022-11-15T11:44:35.347Z,10.16
2022-11-15T11:47:08.277Z,10.20
2022-11-15T11:49:46.763Z,10.23
2022-11-15T11:52:20.316Z,10.25
2022-11-15T11:55:00.861Z,10.23
2022-11-15T11:57:36.443Z,10.24
2022-11-15T12:00:18.945Z,10.23
2022-11-15T12:03:02.988Z,10.26
2022-11-15T12:05:38.632Z,10.29
2022-11-15T12:08:27.260Z,10.33
2022-11-15T12:11:04.895Z,10.36
2022-11-15T12:13:39.245Z,10.38
2022-11-15T12:16:16.194Z,10.41
2022-11-15T12:18:50.593Z,10.42
2022-11-15T12:21:29.707Z,10.45
2022-11-15T12:24:05.531Z,10.49
2022-11-15T12:26:40.733Z,10.56
2022-11-15T12:29:17.344Z,10.60
2022-11-15T12:31:52.191Z,10.67
2022-11-15T12:34:39.323Z,10.70
2022-11-15T12:37:35.744Z,10.73
2022-11-15T12:40:23.348Z,10.76
2022-11-15T12:43:05.851Z,10.77
2022-11-15T12:45:37.714Z,10.79
2022-11-15T12:48:43.440Z,10.85
2022-11-15T12:51:16.277Z,10.95
2022-11-15T12:53:45.560Z,10.96
2022-11-15T12:56:27.332Z,11.01
2022-11-15T12:58:59.840Z,11.04
2022-11-15T13:02:03.984Z,11.10
2022-11-15T13:04:32.995Z,11.17
2022-11-15T13:07:04.055Z,11.22
2022-11-15T13:10:32.959Z,11.24
2022-11-15T13:13:02.666Z,11.26
2022-11-15T13:15:42.776Z,11.32
2022-11-15T13:18:33.971Z,11.36
2022-11-15T13:21:27.180Z,11.35
2022-11-15T13:24:00.825Z,11.27
2022-11-15T13:26:32.293Z,11.20
2022-11-15T13:29:01.619Z,11.14
2022-11-15T13:31:39.577Z,11.07
2022-11-15T13:34:50.138Z,10.98
2022-11-15T13:37:29.738Z,10.92
2022-11-15T13:40:17.948Z,10.85
2022-11-15T13:42:46.200Z,10.79
2022-11-15T13:45:22.341Z,10.76
2022-11-15T13:47:58.139Z,10.74
2022-11-15T13:50:30.488Z,10.70
2022-11-15T13:53:01.863Z,10.66
2022-11-15T13:55:33.881Z,10.62
2022-11-15T13:58:10.326Z,10.59
2022-11-15T14:00:43.975Z,10.54
2022-11-15T14:03:22.168Z,10.58
2022-11-15T14:06:09.874Z,10.58
2022-11-15T14:08:39.841Z,10.56
2022-11-15T14:11:10.056Z,10.54
2022-11-15T14:13:39.834Z,10.51
2022-11-15T14:16:21.560Z,10.46
2022-11-15T14:18:54.213Z,10.44
2022-11-15T14:21:22.411Z,10.40
2022-11-15T14:23:51.626Z,10.39
2022-11-15T14:26:35.818Z,10.28
2022-11-15T14:29:24.469Z,10.25
2022-11-15T14:31:52.571Z,10.19
2022-11-15T14:34:24.699Z,10.16
2022-11-15T14:36:57.451Z,10.09
2022-11-15T14:39:26.099Z,10.05
2022-11-15T14:41:55.140Z,9.99
2022-11-15T14:44:24.938Z,9.93
2022-11-15T14:46:52.803Z,9.96
2022-11-15T14:49:22.895Z,9.94
2022-11-15T14:51:52.697Z,9.87
2022-11-15T14:54:22.592Z,9.78
2022-11-15T14:56:51.947Z,9.67
2022-11-15T14:59:19.692Z,9.62
2022-11-15T15:01:49.929Z,9.62
2022-11-15T15:04:17.635Z,9.55
2022-11-15T15:06:48.804Z,9.51
2022-11-15T15:09:16.914Z,9.46
2022-11-15T15:11:49.204Z,9.40
2022-11-15T15:14:17.301Z,9.35
2022-11-15T15:16:44.987Z,9.29
2022-11-15T15:19:12.762Z,9.23
2022-11-15T15:21:40.849Z,9.17
2022-11-15T15:24:16.723Z,9.10
2022-11-15T15:26:44.476Z,9.05
2022-11-15T15:29:12.237Z,8.99
2022-11-15T15:31:39.988Z,8.96
2022-11-15T15:34:10.865Z,8.93
2022-11-15T15:36:43.149Z,8.87
2022-11-15T15:39:12.550Z,8.83
2022-11-15T15:41:41.488Z,8.78
2022-11-15T15:44:09.190Z,8.74
2022-11-15T15:46:37.248Z,8.68
2022-11-15T15:49:04.943Z,8.64
2022-11-15T15:51:32.726Z,8.59
2022-11-15T15:54:00.424Z,8.55
2022-11-15T15:56:29.570Z,8.52
2022-11-15T15:58:57.460Z,8.47
2022-11-15T16:01:25.779Z,8.42
2022-11-15T16:03:53.538Z,8.37
2022-11-15T16:06:40.132Z,8.36
2022-11-15T16:09:16.608Z,8.31
2022-11-15T16:11:47.868Z,8.28
2022-11-15T16:14:15.583Z,8.25
2022-11-15T16:16:43.305Z,8.23
2022-11-15T16:19:12.837Z,8.22
2022-11-15T16:21:40.584Z,8.19
2022-11-15T16:24:08.366Z,8.16
2022-11-15T16:26:37.857Z,8.09
2022-11-15T16:29:07.931Z,8.11
2022-11-15T16:31:36.119Z,8.07
2022-11-15T16:34:03.858Z,8.00
2022-11-15T16:36:34.978Z,7.98
2022-11-15T16:39:05.225Z,7.94
2022-11-15T16:41:33.436Z,7.92
2022-11-15T16:44:01.194Z,7.90
2022-11-15T16:46:30.303Z,7.87
2022-11-15T16:48:58.057Z,7.85
2022-11-15T16:51:25.949Z,7.82
2022-11-15T16:53:53.801Z,7.85
2022-11-15T16:56:26.518Z,7.82
2022-11-15T16:58:54.688Z,7.78
2022-11-15T17:01:26.593Z,7.85
2022-11-15T17:03:56.478Z,7.76
2022-11-15T17:06:25.793Z,7.70
2022-11-15T17:08:53.814Z,7.69
2022-11-15T17:11:23.646Z,7.67
2022-11-15T17:13:51.466Z,7.66
2022-11-15T17:16:19.750Z,7.65
2022-11-15T17:18:52.150Z,7.65
2022-11-15T17:21:22.938Z,7.63
2022-11-15T17:23:50.708Z,7.61
2022-11-15T17:26:29.609Z,7.58
2022-11-15T17:29:00.093Z,7.58
2022-11-15T17:31:30.103Z,7.57
2022-11-15T17:33:57.972Z,7.55
2022-11-15T17:36:27.227Z,7.52
2022-11-15T17:38:59.318Z,7.51
2022-11-15T17:41:28.522Z,7.50
2022-11-15T17:43:57.823Z,7.50
2022-11-15T17:46:25.489Z,7.50
2022-11-15T17:48:53.370Z,7.51
2022-11-15T17:51:22.046Z,7.49
2022-11-15T17:53:51.637Z,7.49
2022-11-15T17:56:20.873Z,7.47
2022-11-15T17:58:50.346Z,7.46
2022-11-15T18:01:20.491Z,7.46
2022-11-15T18:03:48.753Z,7.46
2022-11-15T18:06:17.980Z,7.44
2022-11-15T18:08:47.124Z,7.45
2022-11-15T18:11:20.067Z,7.45
2022-11-15T18:13:52.422Z,7.45
2022-11-15T18:16:22.855Z,7.43
2022-11-15T18:18:50.590Z,7.37
2022-11-15T18:21:19.981Z,7.35
2022-11-15T18:23:52.410Z,7.35
2022-11-15T18:26:39.851Z,7.32
2022-11-15T18:29:07.530Z,7.34
2022-11-15T18:31:35.196Z,7.33
2022-11-15T18:34:02.854Z,7.33
2022-11-15T18:36:31.768Z,7.30
2022-11-15T18:39:02.247Z,7.28
2022-11-15T18:41:30.756Z,7.25
2022-11-15T18:44:01.110Z,7.25
2022-11-15T18:46:30.701Z,7.22
2022-11-15T18:48:59.961Z,7.16
2022-11-15T18:51:30.458Z,7.16
2022-11-15T18:54:01.139Z,7.13
2022-11-15T18:56:30.637Z,7.10
2022-11-15T18:59:01.789Z,7.09
2022-11-15T19:01:32.602Z,7.09
2022-11-15T19:04:04.457Z,7.08
2022-11-15T19:06:32.182Z,7.07
2022-11-15T19:09:00.837Z,7.06
2022-11-15T19:11:31.103Z,7.04
2022-11-15T19:14:03.099Z,7.03
2022-11-15T19:16:33.143Z,7.03
2022-11-15T19:19:02.933Z,7.03
2022-11-15T19:21:31.993Z,7.03
2022-11-15T19:24:00.790Z,7.03
2022-11-15T19:26:29.505Z,6.99
2022-11-15T19:28:58.769Z,6.98
2022-11-15T19:31:29.342Z,6.94
2022-11-15T19:33:59.330Z,6.92
2022-11-15T19:36:28.838Z,6.91
2022-11-15T19:38:57.278Z,6.90
2022-11-15T19:41:26.186Z,6.91
2022-11-15T19:43:54.774Z,6.92
2022-11-15T19:46:23.542Z,6.89
2022-11-15T19:48:52.762Z,6.88
2022-11-15T19:51:22.520Z,6.85
2022-11-15T19:53:51.202Z,6.83
2022-11-15T19:56:20.362Z,6.83
2022-11-15T19:58:52.359Z,6.83
2022-11-15T20:01:21.724Z,6.83
2022-11-15T20:03:50.786Z,6.84
2022-11-15T20:06:22.392Z,6.84
2022-11-15T20:08:50.140Z,6.84
2022-11-15T20:11:18.713Z,6.83
2022-11-15T20:13:46.936Z,6.83
2022-11-15T20:16:18.281Z,6.82
2022-11-15T20:18:46.357Z,6.82
2022-11-15T20:21:14.281Z,6.81
2022-11-15T20:23:43.875Z,6.80
2022-11-15T20:26:13.870Z,6.81
2022-11-15T20:28:41.893Z,6.80
2022-11-15T20:31:10.693Z,6.81
2022-11-15T20:33:38.413Z,6.82
2022-11-15T20:36:06.880Z,6.81
2022-11-15T20:38:34.932Z,6.81
2022-11-15T20:41:04.604Z,6.82
2022-11-15T20:43:32.397Z,6.82
2022-11-15T20:46:00.118Z,6.82
2022-11-15T20:48:27.994Z,6.82
2022-11-15T20:51:05.456Z,6.82
2022-11-15T20:53:33.188Z,6.82
2022-11-15T20:56:08.973Z,6.83
2022-11-15T20:58:37.397Z,6.83
2022-11-15T21:01:06.190Z,6.82
2022-11-15T21:03:34.690Z,6.82
2022-11-15T21:06:02.407Z,6.79
2022-11-15T21:08:51.457Z,6.78
2022-11-15T21:11:38.357Z,6.77
2022-11-15T21:14:09.251Z,6.78
2022-11-15T21:16:37.561Z,6.72
2022-11-15T21:19:06.831Z,6.68
2022-11-15T21:21:34.674Z,6.63
2022-11-15T21:24:03.570Z,6.61
2022-11-15T21:26:33.052Z,6.59
2022-11-15T21:29:00.785Z,6.56
2022-11-15T21:31:28.806Z,6.56
2022-11-15T21:33:56.474Z,6.57
2022-11-15T21:36:25.017Z,6.56
2022-11-15T21:38:53.570Z,6.56
2022-11-15T21:41:21.283Z,6.57
2022-11-15T21:43:50.289Z,6.55
2022-11-15T21:46:18.706Z,6.54
2022-11-15T21:48:46.460Z,6.53
2022-11-15T21:51:14.170Z,6.54
2022-11-15T21:53:42.060Z,6.55
2022-11-15T21:56:11.792Z,6.55
2022-11-15T21:58:39.796Z,6.55
2022-11-15T22:01:31.552Z,6.54
2022-11-15T22:03:59.294Z,6.54
2022-11-15T22:06:27.006Z,6.53
2022-11-15T22:08:54.739Z,6.52
2022-11-15T22:11:22.480Z,6.52
2022-11-15T22:13:50.400Z,6.53
2022-11-15T22:16:19.465Z,6.53
2022-11-15T22:18:47.249Z,6.53
2022-11-15T22:21:16.630Z,6.53
2022-11-15T22:23:45.583Z,6.55
2022-11-15T22:26:16.536Z,6.57
2022-11-15T22:28:47.665Z,6.61
2022-11-15T22:31:15.463Z,6.62
2022-11-15T22:33:44.614Z,6.64
2022-11-15T22:36:13.602Z,6.64
2022-11-15T22:38:41.444Z,6.68
2022-11-15T22:41:09.920Z,6.71
2022-11-15T22:43:38.115Z,6.71
2022-11-15T22:46:06.773Z,6.69
2022-11-15T22:48:36.558Z,6.70
2022-11-15T22:51:07.018Z,6.71
2022-11-15T22:53:34.987Z,6.69
2022-11-15T22:56:05.166Z,6.67
2022-11-15T22:58:34.371Z,6.65
2022-11-15T23:01:04.268Z,6.63
2022-11-15T23:03:33.379Z,6.62
2022-11-15T23:06:07.872Z,6.63
2022-11-15T23:08:36.134Z,6.62
2022-11-15T23:11:22.962Z,6.60
2022-11-15T23:13:52.337Z,6.60
2022-11-15T23:16:23.695Z,6.59
2022-11-15T23:18:53.263Z,6.61
2022-11-15T23:21:42.596Z,6.62
2022-11-15T23:24:11.562Z,6.64
2022-11-15T23:26:40.118Z,6.69
2022-11-15T23:29:10.560Z,6.70
2022-11-15T23:32:01.599Z,6.72
2022-11-15T23:34:31.066Z,6.75
2022-11-15T23:37:00.773Z,6.78
2022-11-15T23:39:28.906Z,6.87
2022-11-15T23:41:57.032Z,6.97
2022-11-15T23:44:25.629Z,7.02
2022-11-15T23:46:53.817Z,7.08
2022-11-15T23:49:21.702Z,7.13
2022-11-15T23:51:49.608Z,7.17
2022-11-15T23:54:18.769Z,7.22
2022-11-15T23:56:46.564Z,7.24
2022-11-15T23:59:14.382Z,7.23
